Conejos, Valles Caldera, New Mexico Weather observations

Data are for 10 minute period ending at time listed.
 Day   Time   Solar   Ave.   Ave.  Ave.  Vector  Max.   Baro.   Total    
  of    of     Rad.   Air    Rel.  Wind   Wind   Wind  Press.  Precip.   
Year   Day            Temp.  Hum.  Speed  Dir.   Gust                    
2014   (MST)  Kw/m2    F      %     mph   deg.    mph    mb.     in.     
-------------------------------------------------------------------------
 109   13:30   0.17   51.0    54    4.3   174    10.5   99999.0    0.01 
 109   13:40   0.16   50.2    56    3.2   166     7.2   99999.0    0.00 
 109   13:50   0.16   49.7    57    3.6   147     9.6   99999.0    0.00 
 109   14:00   0.15   49.3    58    3.6   159     9.6   99999.0    0.00 
 109   14:10   0.16   48.7    61    3.2   176     8.4   99999.0    0.00 
 109   14:20   0.14   48.7    61    2.8   165     8.1   99999.0    0.00 
 109   14:30   0.11   48.4    62    2.5   148     7.2   99999.0    0.00 
 109   14:40   0.10   48.3    63    2.7   145     6.0   99999.0    0.00 
 109   14:50   0.11   47.6    71    3.7   172    10.2   99999.0    0.00 
 109   15:00   0.11   46.4    77    3.4   155     6.0   99999.0    0.00 
 109   15:10   0.11   45.6    82    3.7   164     7.2   99999.0    0.00 
 109   15:20   0.09   45.3    85    2.3   154     5.4   99999.0    0.00 
 109   15:30   0.07   44.7    86    2.3   150     5.1   99999.0    0.00 
 109   15:40   0.10   44.7    86    2.1   140     4.2   99999.0    0.00 
 109   15:50   0.11   45.2    83    1.1   150     3.6   99999.0    0.00 
 109   16:00   0.05   45.6    83    1.2   200     3.0   99999.0    0.00 
 109   16:10   0.05   45.6    83    0.7    59     2.4   99999.0    0.00 
 109   16:20   0.07   45.6    81    1.3   259     2.4   99999.0    0.00 
 109   16:30   0.06   45.6    80    0.9    98     2.4   99999.0    0.00 
 109   16:40   0.05   45.3    78    1.7   139     6.6   99999.0    0.00 
 109   16:50   0.06   44.9    79    2.5   165     5.4   99999.0    0.00 
 109   17:00   0.04   44.7    83    0.9    67     2.4   99999.0    0.00 
 109   17:10   0.02   43.6    87    2.1   319     4.2   99999.0    0.00 
 109   17:20   0.03   42.4    92    0.5   233     1.8   99999.0    0.00 
 109   17:30   0.02   42.1    94    0.5    92     1.8   99999.0    0.00 
 109   17:40   0.02   42.0    95    0.7   334     2.4   99999.0    0.00 
 109   17:50   0.02   41.8    95    0.1   340     1.2   99999.0    0.00 
 109   18:00   0.01   41.7    95    0.0     0     0.0   99999.0    0.00 
 109   18:10   0.01   41.6    95    0.7   303     2.4   99999.0    0.00 
 109   18:20   0.00   41.2    95    1.1   339     2.4   99999.0    0.00 
 109   18:30   0.00   40.8    95    1.0   340     1.8   99999.0    0.00 
 109   18:40   0.00   40.7    96    1.8   339     3.0   99999.0    0.00 
 109   18:50   0.00   40.4    96    1.8   347     2.4   99999.0    0.00 
 109   19:00   0.00   39.9    96    1.9   335     3.0   99999.0    0.00 
 109   19:10   0.00   39.7    96    0.8   322     1.8   99999.0    0.00 
 109   19:20   0.00   39.7    96    0.3   303     1.8   99999.0    0.00 
 109   19:30   0.00   39.6    96    0.9   345     1.8   99999.0    0.00 
 109   19:40   0.00   39.4    96    1.5   359     3.0   99999.0    0.00 
 109   19:50   0.00   39.4    96    3.0   346     4.2   99999.0    0.00 
 109   20:00   0.00   40.1    92    3.4   341     5.4   99999.0    0.00 
 109   20:10   0.00   40.7    88    2.9   333     5.4   99999.0    0.00 
 109   20:20   0.00   40.6    89    2.4   332     3.6   99999.0    0.00 
 109   20:30   0.00   41.0    85    1.5   331     3.0   99999.0    0.00 
 109   20:40   0.00   40.9    87    2.0   331     3.0   99999.0    0.00 
 109   20:50   0.00   40.5    89    1.7   329     2.4   99999.0    0.00 
 109   21:00   0.00   40.3    90    1.8   330     3.6   99999.0    0.00 
 109   21:10   0.00   40.7    87    2.2   330     5.1   99999.0    0.00 
 109   21:20   0.00   41.0    86    1.7   315     3.0   99999.0    0.00 
 109   21:30   0.00   41.5    84    0.8   259     2.4   99999.0    0.00 
 109   21:40   0.00   41.1    87    0.2    17     1.8   99999.0    0.00 
 109   21:50   0.00   40.3    90    0.2    72     1.2   99999.0    0.00 
 109   22:00   0.00   40.1    91    0.3   215     1.8   99999.0    0.00 
 109   22:10   0.00   40.2    91    0.1   182     1.2   99999.0    0.00 
 109   22:20   0.00   40.0    92    0.0     0     0.0   99999.0    0.00 
 109   22:30   0.00   39.9    92    0.0     0     0.0   99999.0    0.00 
 109   22:40   0.00   39.9    92    0.4   152     1.8   99999.0    0.00 
 109   22:50   0.00   40.3    88    0.2   345     1.2   99999.0    0.00 
 109   23:00   0.00   40.1    88    0.3   328     1.2   99999.0    0.00 
 109   23:10   0.00   39.8    90    0.0   347     1.2   99999.0    0.00 
 109   23:20   0.00   39.5    90    0.0   248     1.2   99999.0    0.00 
 109   23:30   0.00   39.3    90    0.0   113     1.2   99999.0    0.00 
 109   23:40   0.00   38.9    91    0.0     0     0.0   99999.0    0.00 
 109   23:50   0.00   38.6    90    0.1   325     1.2   99999.0    0.00 
 110    0:00   0.00   38.8    88    0.2   224     1.2   99999.0    0.00 
 110    0:10   0.00   39.0    88    0.0   204     1.2   99999.0    0.00 
 110    0:20   0.00   38.7    88    0.0   302     1.2   99999.0    0.00 
 110    0:30   0.00   38.6    88    0.0     0     0.0   99999.0    0.00 
 110    0:40   0.00   38.3    89    0.0     0     0.0   99999.0    0.00 
 110    0:50   0.00   38.5    88    0.0     0     0.0   99999.0    0.00 
 110    1:00   0.00   38.1    88    0.0   290     1.2   99999.0    0.00 
 110    1:10   0.00   37.8    88    0.0   324     1.2   99999.0    0.00 
 110    1:20   0.00   38.0    89    0.0     0     0.0   99999.0    0.00 
 110    1:30   0.00   38.4    88    0.0     0     0.0   99999.0    0.00 
 110    1:40   0.00   38.7    87    0.5   331     1.8   99999.0    0.00 
 110    1:50   0.00   38.7    87    1.4   334     3.0   99999.0    0.00 
 110    2:00   0.00   39.0    87    2.5   329     4.8   99999.0    0.00 
 110    2:10   0.00   38.9    87    2.7   333     7.2   99999.0    0.00 
 110    2:20   0.00   38.8    87    2.4   324     4.8   99999.0    0.00 
 110    2:30   0.00   39.2    85    2.2   322     4.2   99999.0    0.00 
 110    2:40   0.00   38.9    86    2.0   314     3.6   99999.0    0.00 
 110    2:50   0.00   38.6    86    1.8   314     3.0   99999.0    0.00 
 110    3:00   0.00   38.1    87    2.1   328     4.2   99999.0    0.00 
 110    3:10   0.00   36.4    90    0.5   333     2.4   99999.0    0.00 
 110    3:20   0.00   36.0    92    0.2   321     1.8   99999.0    0.00 
 110    3:30   0.00   35.7    93    1.5   317     3.6   99999.0    0.00 
 110    3:40   0.00   36.1    93    1.7   325     3.6   99999.0    0.00 
 110    3:50   0.00   35.4    92    1.8   325     3.6   99999.0    0.00 
 110    4:00   0.00   34.6    93    1.3   330     2.4   99999.0    0.00 
 110    4:10   0.00   35.1    95    1.9   326     3.0   99999.0    0.00 
 110    4:20   0.00   35.4    94    2.4   332     5.4   99999.0    0.00 
 110    4:30   0.00   36.1    93    2.6   327     5.4   99999.0    0.00 
 110    4:40   0.00   36.6    91    2.4   333     4.2   99999.0    0.00 
 110    4:50   0.00   36.8    90    2.6   329     5.4   99999.0    0.00 
 110    5:00   0.00   36.9    90    2.8   334     6.0   99999.0    0.00 
 110    5:10   0.00   37.3    88    2.7   332     4.8   99999.0    0.00 
 110    5:20   0.00   38.1    86    3.0   329     6.9   99999.0    0.00 
 110    5:30   0.00   38.3    85    3.0   328     4.5   99999.0    0.00 
 110    5:40   0.00   38.7    84    2.6   322     4.2   99999.0    0.00 
 110    5:50   0.01   39.3    82    2.9   331     6.6   99999.0    0.00 
 110    6:00   0.02   39.3    82    3.0   330     6.0   99999.0    0.00 
 110    6:10   0.03   39.3    82    2.7   332     4.8   99999.0    0.00 
 110    6:20   0.02   38.9    83    2.8   341     4.8   99999.0    0.00 
 110    6:30   0.03   39.4    81    3.0   342     4.5   99999.0    0.00 
 110    6:40   0.06   39.8    79    2.7   337     4.8   99999.0    0.00 
 110    6:50   0.05   40.1    79    2.9   341     6.0   99999.0    0.00 
 110    7:00   0.06   40.9    77    3.1   333     4.8   99999.0    0.00 
 110    7:10   0.07   41.8    75    2.3   334     4.2   99999.0    0.00 
 110    7:20   0.07   43.0    72    1.7   332     2.4   99999.0    0.00 
 110    7:30   0.14   42.2    76    1.9   341     3.0   99999.0    0.00 
 110    7:40   0.13   43.1    75    2.5   324     4.8   99999.0    0.00 
 110    7:50   0.19   45.3    69    3.0   316     6.0   99999.0    0.00 
 110    8:00   0.30   46.2    66    3.1   313     5.4   99999.0    0.00 
 110    8:10   0.37   46.5    64    3.3   325     6.6   99999.0    0.00 
 110    8:20   0.43   47.5    62    3.7   317     7.8   99999.0    0.00 
 110    8:30   0.53   48.1    62    2.3   326     5.4   99999.0    0.00 
 110    8:40   0.44   48.7    60    2.2   326     4.2   99999.0    0.00 
 110    8:50   0.64   49.0    60    2.2   314     4.8   99999.0    0.00 
 110    9:00   0.71   49.5    61    2.4   288     5.4   99999.0    0.00 
 110    9:10   0.75   49.5    64    3.1   228     7.8   99999.0    0.00 
 110    9:20   0.77   48.7    68    2.3    39     7.8   99999.0    0.00 
 110    9:30   0.80   50.9    63    3.0   105     7.2   99999.0    0.00 
 110    9:40   0.71   51.4    60    3.2   219     7.2   99999.0    0.00 
 110    9:50   0.25   49.7    63    2.4   248     4.8   99999.0    0.00 
 110   10:00   0.71   49.8    65    2.5   311     5.4   99999.0    0.00 
 110   10:10   0.91   51.8    62    2.9   180     6.6   99999.0    0.00 
 110   10:20   0.95   52.1    61    2.7   227     6.6   99999.0    0.00 
 110   10:30   0.96   52.2    59    3.0   169     7.2   99999.0    0.00 
 110   10:40   0.64   54.1    54    3.2   174     7.8   99999.0    0.00 
 110   10:50   0.66   52.1    56    2.6   332     4.8   99999.0    0.00 
 110   11:00   0.92   54.5    48    4.0   330     9.0   99999.0    0.00 
 110   11:10   0.98   55.6    44    5.0   336    11.3   99999.0    0.01 
 110   11:20   0.92   55.7    44    4.0   337     8.4   99999.0    0.00 
 110   11:30   0.49   55.0    44    4.2    23     8.4   99999.0    0.00 
 110   11:40   0.71   56.1    44    3.7    58     6.6   99999.0    0.01 
 110   11:50   1.12   56.4    42    5.6   341    11.9   99999.0    0.00 
 110   12:00   0.34   57.3    41    3.5    10     8.4   99999.0    0.00 
 110   12:10   0.63   54.9    43    3.5    33     7.8   99999.0    0.01 
 110   12:20   0.81   58.6    38    3.9    49     7.2   99999.0    0.00 
 110   12:30   0.54   57.4    39    4.3   359     9.6   99999.0    0.00 
 110   12:40   0.88   56.7    38    4.5   326    10.2   99999.0    0.00 
 110   12:50   0.67   56.1    38    4.1   325    13.1   99999.0    0.01 
 110   13:00   0.95   58.7    35    4.4     4     9.6   99999.0    0.00 
 110   13:10   0.81   59.2    34    4.5    34    10.2   99999.0    0.00 
 110   13:20   0.95   60.3    32    4.2    15     7.2   99999.0    0.00 

Return to Conejos, Valles Caldera graphs page.


Western Regional Climate Center,wrcc@dri.edu